createdAt,value
2019-02-22T00:01:21.328Z,70.80
2019-02-22T00:03:50.510Z,69.97
2019-02-22T00:06:19.694Z,67.47
2019-02-22T00:08:48.911Z,71.13
2019-02-22T00:11:18.098Z,69.00
2019-02-22T00:13:47.297Z,75.63
2019-02-22T00:16:16.508Z,62.50
2019-02-22T00:18:45.696Z,66.37
2019-02-22T00:21:14.875Z,66.63
2019-02-22T00:23:44.101Z,71.30
2019-02-22T00:26:13.286Z,75.30
2019-02-22T00:28:42.477Z,68.17
2019-02-22T00:31:11.666Z,76.03
2019-02-22T00:33:40.855Z,72.30
2019-02-22T00:36:10.067Z,74.83
2019-02-22T00:38:39.258Z,76.33
2019-02-22T00:41:08.469Z,68.23
2019-02-22T00:43:37.693Z,74.73
2019-02-22T00:46:06.853Z,70.37
2019-02-22T00:48:36.063Z,60.63
2019-02-22T00:51:05.254Z,75.13
2019-02-22T00:53:34.446Z,69.97
2019-02-22T00:56:03.672Z,70.43
2019-02-22T00:58:32.870Z,66.10
2019-02-22T01:01:02.055Z,68.33
2019-02-22T01:03:31.262Z,67.47
2019-02-22T01:06:00.451Z,66.03
2019-02-22T01:08:29.663Z,69.33
2019-02-22T01:10:58.897Z,63.80
2019-02-22T01:13:28.111Z,58.07
2019-02-22T01:15:57.307Z,58.50
2019-02-22T01:18:26.518Z,67.83
2019-02-22T01:20:55.729Z,59.00
2019-02-22T01:23:24.942Z,61.30
2019-02-22T01:25:54.126Z,63.07
2019-02-22T01:28:23.322Z,66.90
2019-02-22T01:30:52.537Z,57.10
2019-02-22T01:33:21.789Z,56.17
2019-02-22T01:35:50.979Z,60.30
2019-02-22T01:38:20.225Z,64.80
2019-02-22T01:40:49.434Z,62.00
2019-02-22T01:43:18.624Z,61.93
2019-02-22T01:45:47.926Z,57.80
2019-02-22T01:48:17.116Z,58.13
2019-02-22T01:50:46.329Z,57.07
2019-02-22T01:53:15.549Z,52.73
2019-02-22T01:55:44.754Z,48.10
2019-02-22T01:58:14.014Z,52.90
2019-02-22T02:00:43.233Z,56.67
2019-02-22T02:03:12.442Z,52.73
2019-02-22T02:05:41.633Z,47.07
2019-02-22T02:08:10.842Z,49.47
2019-02-22T02:10:40.039Z,45.47
2019-02-22T02:13:09.234Z,46.83
2019-02-22T02:15:38.446Z,44.93
2019-02-22T02:18:07.633Z,46.90
2019-02-22T02:20:36.906Z,46.40
2019-02-22T02:23:06.138Z,47.07
2019-02-22T02:25:35.325Z,53.27
2019-02-22T02:28:04.508Z,49.93
2019-02-22T02:30:33.735Z,46.33
2019-02-22T02:33:02.942Z,45.20
2019-02-22T02:35:32.202Z,50.53
2019-02-22T02:38:02.381Z,50.10
2019-02-22T02:40:31.572Z,49.00
2019-02-22T02:43:00.776Z,53.03
2019-02-22T02:45:29.974Z,55.87
2019-02-22T02:47:59.237Z,58.47
2019-02-22T02:50:28.431Z,53.37
2019-02-22T02:52:57.644Z,47.70
2019-02-22T02:55:29.525Z,58.20
2019-02-22T02:57:58.745Z,53.47
2019-02-22T03:00:28.009Z,50.17
2019-02-22T03:02:57.245Z,54.77
2019-02-22T03:05:43.422Z,50.00
2019-02-22T03:08:12.816Z,57.27
2019-02-22T03:10:41.992Z,49.93
2019-02-22T03:13:11.216Z,46.07
2019-02-22T03:15:40.540Z,49.20
2019-02-22T03:18:09.712Z,50.90
2019-02-22T03:20:38.976Z,47.47
2019-02-22T03:23:08.156Z,53.63
2019-02-22T03:25:37.355Z,39.00
2019-02-22T03:28:06.569Z,44.93
2019-02-22T03:30:35.946Z,46.97
2019-02-22T03:33:05.138Z,42.70
2019-02-22T03:35:34.356Z,46.60
2019-02-22T03:38:05.858Z,51.27
2019-02-22T03:40:34.478Z,47.80
2019-02-22T03:43:03.668Z,48.47
2019-02-22T03:45:33.054Z,46.47
2019-02-22T03:48:02.249Z,54.40
2019-02-22T03:50:31.442Z,41.80
2019-02-22T03:53:17.307Z,43.83
2019-02-22T03:55:46.584Z,49.00
2019-02-22T03:58:16.145Z,47.47
2019-02-22T04:00:45.474Z,47.23
2019-02-22T04:03:14.736Z,49.60
2019-02-22T04:05:43.959Z,48.90
2019-02-22T04:08:13.413Z,46.40
2019-02-22T04:10:42.611Z,48.03
2019-02-22T04:13:11.788Z,50.37
2019-02-22T04:15:41.008Z,44.03
2019-02-22T04:18:10.213Z,44.83
2019-02-22T04:20:39.459Z,48.27
2019-02-22T04:23:08.641Z,48.17
2019-02-22T04:25:38.029Z,53.70
2019-02-22T04:28:07.210Z,53.77
2019-02-22T04:30:38.019Z,52.93
2019-02-22T04:33:07.370Z,56.67
2019-02-22T04:35:36.567Z,52.63
2019-02-22T04:38:05.756Z,44.53
2019-02-22T04:40:34.953Z,49.93
2019-02-22T04:43:04.345Z,42.90
2019-02-22T04:45:33.531Z,38.83
2019-02-22T04:48:02.723Z,39.27
2019-02-22T04:50:31.944Z,39.07
2019-02-22T04:53:01.118Z,35.37
2019-02-22T04:55:30.370Z,38.80
2019-02-22T04:57:59.574Z,39.47
2019-02-22T05:00:28.797Z,39.83
2019-02-22T05:02:58.007Z,41.27
2019-02-22T05:05:27.219Z,44.63
2019-02-22T05:07:56.441Z,43.87
2019-02-22T05:10:25.625Z,42.23
2019-02-22T05:12:54.812Z,43.13
2019-02-22T05:15:24.028Z,44.43
2019-02-22T05:17:53.272Z,46.20
2019-02-22T05:20:22.462Z,50.23
2019-02-22T05:23:03.010Z,48.50
2019-02-22T05:25:22.905Z,47.17
2019-02-22T05:27:52.106Z,51.30
2019-02-22T05:30:21.322Z,51.47
2019-02-22T05:32:50.554Z,49.57
2019-02-22T05:35:19.776Z,49.87
2019-02-22T05:37:49.325Z,52.40
2019-02-22T05:40:18.536Z,46.13
2019-02-22T05:42:47.984Z,62.00
2019-02-22T05:45:17.236Z,54.67
2019-02-22T05:47:46.420Z,49.87
2019-02-22T05:50:15.617Z,46.80
2019-02-22T05:52:44.829Z,48.43
2019-02-22T05:55:14.129Z,52.97
2019-02-22T05:57:43.372Z,54.00
2019-02-22T06:00:12.716Z,51.20
2019-02-22T06:02:41.929Z,53.20
2019-02-22T06:05:11.299Z,50.80
2019-02-22T06:07:40.554Z,51.63
2019-02-22T06:10:10.891Z,46.93
2019-02-22T06:12:40.148Z,44.63
2019-02-22T06:15:09.510Z,41.13
2019-02-22T06:17:38.857Z,41.87
2019-02-22T06:20:13.266Z,45.87
2019-02-22T06:22:42.523Z,42.87
2019-02-22T06:25:11.808Z,41.17
2019-02-22T06:27:41.083Z,44.97
2019-02-22T06:30:11.180Z,39.93
2019-02-22T06:32:42.244Z,43.17
2019-02-22T06:35:11.403Z,35.83
2019-02-22T06:37:40.658Z,40.70
2019-02-22T06:40:10.373Z,42.50
2019-02-22T06:42:45.943Z,40.50
2019-02-22T06:45:10.661Z,44.10
2019-02-22T06:47:40.017Z,42.73
2019-02-22T06:50:09.441Z,44.67
2019-02-22T06:52:38.732Z,41.67
2019-02-22T06:55:08.042Z,45.57
2019-02-22T06:57:37.285Z,56.37
2019-02-22T07:00:11.973Z,51.50
2019-02-22T07:02:41.205Z,42.23
2019-02-22T07:05:10.509Z,46.53
2019-02-22T07:07:39.779Z,52.87
2019-02-22T07:10:10.575Z,51.83
2019-02-22T07:12:56.263Z,53.33
2019-02-22T07:15:18.067Z,49.37
2019-02-22T07:17:47.360Z,53.40
2019-02-22T07:20:16.634Z,53.27
2019-02-22T07:22:46.201Z,56.93
2019-02-22T07:25:15.444Z,50.00
2019-02-22T07:27:44.756Z,55.10
2019-02-22T07:30:14.047Z,52.33
2019-02-22T07:32:43.418Z,61.80
2019-02-22T07:35:14.327Z,51.87
2019-02-22T07:37:43.799Z,64.50
2019-02-22T07:40:13.355Z,64.57
2019-02-22T07:42:42.737Z,60.03
2019-02-22T07:45:12.343Z,66.47
2019-02-22T07:47:41.576Z,63.10
2019-02-22T07:50:11.185Z,70.70
2019-02-22T07:52:40.437Z,65.63
2019-02-22T07:55:10.763Z,66.17
2019-02-22T07:57:40.410Z,58.60
2019-02-22T08:00:12.602Z,58.13
2019-02-22T08:02:41.848Z,59.80
2019-02-22T08:05:11.164Z,61.47
2019-02-22T08:07:40.447Z,65.70
2019-02-22T08:10:09.722Z,59.70
2019-02-22T08:12:38.981Z,62.70
2019-02-22T08:15:10.273Z,56.37
2019-02-22T08:17:39.526Z,61.10
2019-02-22T08:20:09.628Z,57.23
2019-02-22T08:22:38.922Z,56.17
2019-02-22T08:25:08.315Z,49.40
2019-02-22T08:27:40.120Z,51.93
2019-02-22T08:30:10.749Z,50.60
2019-02-22T08:32:40.182Z,47.60
2019-02-22T08:35:09.509Z,51.00
2019-02-22T08:37:38.690Z,59.63
2019-02-22T08:40:10.189Z,53.23
2019-02-22T08:42:39.469Z,55.90
2019-02-22T08:45:10.179Z,48.37
2019-02-22T08:47:39.389Z,52.10
2019-02-22T08:50:09.172Z,56.53
2019-02-22T08:52:38.411Z,56.63
2019-02-22T08:55:07.825Z,49.47
2019-02-22T08:57:37.112Z,53.83
2019-02-22T09:00:09.675Z,46.30
2019-02-22T09:02:38.863Z,51.00
2019-02-22T09:05:09.165Z,53.97
2019-02-22T09:07:38.394Z,48.00
2019-02-22T09:10:10.710Z,49.57
2019-02-22T09:12:39.963Z,47.47
2019-02-22T09:15:10.396Z,49.43
2019-02-22T09:17:39.634Z,54.53
2019-02-22T09:20:12.664Z,43.53
2019-02-22T09:22:41.827Z,46.83
2019-02-22T09:25:11.217Z,45.10
2019-02-22T09:27:40.494Z,42.70
2019-02-22T09:30:11.679Z,40.87
2019-02-22T09:32:40.934Z,38.33
2019-02-22T09:35:11.354Z,42.50
2019-02-22T09:37:40.582Z,44.03
2019-02-22T09:40:14.814Z,34.60
2019-02-22T09:42:44.165Z,37.93
2019-02-22T09:45:13.634Z,38.93
2019-02-22T09:47:42.876Z,40.33
2019-02-22T09:50:16.298Z,46.47
2019-02-22T09:52:45.535Z,42.13
2019-02-22T09:55:14.887Z,44.63
2019-02-22T09:57:44.141Z,41.87
2019-02-22T10:00:16.382Z,40.73
2019-02-22T10:02:45.646Z,46.50
2019-02-22T10:05:15.043Z,47.67
2019-02-22T10:07:44.308Z,48.00
2019-02-22T10:10:13.546Z,42.50
2019-02-22T10:12:43.008Z,42.53
2019-02-22T10:15:12.318Z,49.53
2019-02-22T10:17:41.546Z,46.07
2019-02-22T10:20:11.073Z,40.13
2019-02-22T10:22:40.340Z,42.90
2019-02-22T10:25:09.729Z,45.97
2019-02-22T10:27:39.311Z,42.77
2019-02-22T10:30:27.950Z,47.40
2019-02-22T10:32:57.342Z,45.03
2019-02-22T10:35:26.578Z,53.70
2019-02-22T10:37:55.854Z,46.47
2019-02-22T10:40:25.117Z,45.17
2019-02-22T10:42:54.356Z,51.37
2019-02-22T10:45:23.698Z,51.93
2019-02-22T10:47:52.953Z,48.27
2019-02-22T10:50:22.185Z,53.13
2019-02-22T10:53:01.755Z,52.60
2019-02-22T10:55:22.736Z,53.33
2019-02-22T10:57:52.050Z,49.47
2019-02-22T11:00:21.391Z,58.60
2019-02-22T11:02:50.660Z,48.23
2019-02-22T11:05:19.907Z,48.07
2019-02-22T11:07:49.134Z,53.83
2019-02-22T11:10:18.498Z,57.00
2019-02-22T11:12:48.052Z,46.77
2019-02-22T11:15:17.294Z,53.20
2019-02-22T11:17:46.583Z,52.70
2019-02-22T11:20:15.872Z,47.27
2019-02-22T11:22:45.136Z,55.80
2019-02-22T11:25:15.820Z,55.37
2019-02-22T11:27:45.172Z,59.87
2019-02-22T11:30:15.454Z,59.97
2019-02-22T11:32:44.746Z,63.90
2019-02-22T11:35:14.010Z,55.37
2019-02-22T11:37:43.319Z,71.40
2019-02-22T11:40:12.689Z,61.33
2019-02-22T11:42:42.009Z,65.63
2019-02-22T11:45:11.406Z,64.07
2019-02-22T11:47:40.659Z,55.17
2019-02-22T11:50:11.357Z,51.10
2019-02-22T11:52:40.675Z,62.90
2019-02-22T11:55:10.942Z,54.77
2019-02-22T11:57:40.665Z,56.00
2019-02-22T12:00:16.786Z,51.40
2019-02-22T12:02:47.299Z,54.70
2019-02-22T12:05:16.658Z,56.93
2019-02-22T12:07:45.984Z,52.57
2019-02-22T12:10:15.243Z,58.87
2019-02-22T12:12:44.582Z,53.10
2019-02-22T12:15:14.599Z,61.73
2019-02-22T12:17:43.874Z,59.50
2019-02-22T12:20:13.295Z,56.70
2019-02-22T12:22:42.625Z,58.17
2019-02-22T12:25:13.047Z,60.97
2019-02-22T12:27:42.334Z,56.50
2019-02-22T12:30:13.724Z,61.47
2019-02-22T12:32:43.015Z,59.40
2019-02-22T12:35:12.461Z,56.13
2019-02-22T12:37:41.884Z,56.07
2019-02-22T12:40:11.855Z,53.17
2019-02-22T12:42:41.118Z,65.60
2019-02-22T12:45:11.945Z,57.00
2019-02-22T12:47:41.310Z,65.70
2019-02-22T12:50:11.885Z,61.07
2019-02-22T12:52:41.111Z,58.77
2019-02-22T12:55:11.280Z,73.53
2019-02-22T12:57:40.485Z,58.40
2019-02-22T13:00:20.171Z,58.17
2019-02-22T13:02:49.485Z,56.00
2019-02-22T13:05:21.491Z,59.43
2019-02-22T13:07:52.695Z,50.70
2019-02-22T13:10:21.699Z,61.87
2019-02-22T13:12:51.032Z,61.00
2019-02-22T13:15:20.321Z,51.40
2019-02-22T13:17:49.585Z,51.00
2019-02-22T13:20:18.899Z,48.20
2019-02-22T13:22:48.207Z,57.73
2019-02-22T13:25:17.428Z,58.20
2019-02-22T13:27:46.740Z,56.77
2019-02-22T13:30:16.376Z,52.63
2019-02-22T13:32:45.685Z,60.13
2019-02-22T13:35:14.934Z,53.27
2019-02-22T13:37:44.218Z,49.50
2019-02-22T13:40:15.277Z,50.13
2019-02-22T13:42:44.588Z,42.37
2019-02-22T13:45:25.502Z,46.63
2019-02-22T13:47:45.686Z,42.17
2019-02-22T13:50:19.040Z,40.60
2019-02-22T13:52:48.365Z,39.13
2019-02-22T13:55:17.599Z,39.10
2019-02-22T13:57:47.113Z,36.90
2019-02-22T14:00:18.207Z,37.87
2019-02-22T14:02:47.484Z,44.90
2019-02-22T14:05:16.992Z,43.23
2019-02-22T14:07:51.303Z,43.73
2019-02-22T14:10:20.900Z,42.03
2019-02-22T14:12:50.318Z,39.10
2019-02-22T14:15:19.617Z,42.37
2019-02-22T14:17:48.917Z,43.40
2019-02-22T14:20:18.245Z,44.87
2019-02-22T14:22:48.962Z,41.87
2019-02-22T14:25:18.205Z,45.70
2019-02-22T14:27:47.478Z,44.27
2019-02-22T14:30:17.795Z,46.23
2019-02-22T14:32:47.153Z,45.33
2019-02-22T14:35:16.398Z,47.30
2019-02-22T14:37:45.732Z,45.00
2019-02-22T14:40:15.122Z,45.67
2019-02-22T14:42:44.728Z,46.87
2019-02-22T14:45:14.048Z,40.13
2019-02-22T14:47:43.384Z,51.53
2019-02-22T14:50:19.346Z,46.53
2019-02-22T14:52:48.713Z,48.50
2019-02-22T14:55:17.975Z,44.97
2019-02-22T14:57:47.261Z,44.93
2019-02-22T15:00:20.204Z,43.17
2019-02-22T15:02:49.597Z,45.10
2019-02-22T15:05:18.876Z,40.07
2019-02-22T15:07:48.247Z,46.27
2019-02-22T15:10:18.785Z,35.90
2019-02-22T15:12:48.226Z,36.57
2019-02-22T15:15:21.187Z,37.50
2019-02-22T15:17:54.750Z,36.00
2019-02-22T15:20:24.002Z,35.57
2019-02-22T15:22:53.314Z,30.43
2019-02-22T15:25:22.592Z,27.60
2019-02-22T15:27:51.859Z,26.90
2019-02-22T15:30:21.186Z,28.53
2019-02-22T15:32:50.468Z,29.57
2019-02-22T15:35:19.816Z,23.73
2019-02-22T15:37:49.991Z,21.00
2019-02-22T15:40:19.425Z,22.53
2019-02-22T15:42:48.655Z,16.57
2019-02-22T15:45:19.160Z,19.67
2019-02-22T15:47:49.104Z,16.60
2019-02-22T15:50:19.243Z,18.87
2019-02-22T15:52:49.755Z,14.53
2019-02-22T15:55:18.997Z,19.97
2019-02-22T15:57:48.334Z,17.53
2019-02-22T16:00:26.725Z,18.20
2019-02-22T16:02:55.996Z,16.17
2019-02-22T16:05:26.991Z,19.60
2019-02-22T16:08:14.252Z,18.23
2019-02-22T16:10:43.495Z,20.47
2019-02-22T16:13:12.825Z,26.10
2019-02-22T16:15:42.246Z,24.20
2019-02-22T16:18:11.436Z,29.93
2019-02-22T16:20:40.684Z,34.53
2019-02-22T16:23:09.980Z,38.43
2019-02-22T16:25:39.234Z,40.60
2019-02-22T16:28:08.492Z,38.73
2019-02-22T16:30:45.403Z,37.97
2019-02-22T16:33:14.657Z,42.80
2019-02-22T16:35:43.918Z,40.53
2019-02-22T16:38:13.276Z,46.57
2019-02-22T16:40:42.541Z,43.07
2019-02-22T16:43:11.920Z,48.40
2019-02-22T16:45:41.258Z,41.70
2019-02-22T16:48:10.582Z,42.90
2019-02-22T16:50:39.892Z,41.90
2019-02-22T16:53:09.459Z,36.03
2019-02-22T16:55:38.839Z,34.90
2019-02-22T16:58:08.101Z,36.53
2019-02-22T17:00:37.380Z,37.37
2019-02-22T17:03:06.652Z,40.53
2019-02-22T17:05:36.148Z,37.50
2019-02-22T17:08:05.483Z,34.93
2019-02-22T17:10:34.793Z,32.40
2019-02-22T17:13:04.312Z,32.03
2019-02-22T17:15:33.546Z,29.53
2019-02-22T17:18:02.800Z,32.77
2019-02-22T17:20:32.059Z,30.73
2019-02-22T17:23:01.320Z,27.20
2019-02-22T17:25:30.549Z,28.70
2019-02-22T17:28:00.389Z,26.07
2019-02-22T17:30:29.746Z,25.37
2019-02-22T17:32:59.034Z,25.80
2019-02-22T17:35:28.322Z,23.70
2019-02-22T17:37:57.624Z,21.27
2019-02-22T17:40:33.313Z,22.33
2019-02-22T17:43:02.590Z,20.00
2019-02-22T17:45:31.882Z,19.37
2019-02-22T17:48:01.252Z,19.30
2019-02-22T17:50:30.543Z,17.03
2019-02-22T17:52:59.834Z,15.67
2019-02-22T17:55:29.074Z,18.43
2019-02-22T17:57:58.439Z,17.57
2019-02-22T18:00:27.764Z,13.63
2019-02-22T18:02:57.009Z,17.43
2019-02-22T18:05:26.300Z,14.17
2019-02-22T18:07:55.597Z,16.17
2019-02-22T18:10:24.827Z,14.83
2019-02-22T18:12:54.166Z,10.63
2019-02-22T18:15:23.425Z,11.23
2019-02-22T18:17:52.664Z,8.33
2019-02-22T18:20:22.081Z,8.00
2019-02-22T18:22:51.356Z,7.77
2019-02-22T18:25:20.592Z,9.00
2019-02-22T18:27:49.824Z,8.67
2019-02-22T18:30:21.669Z,13.37
2019-02-22T18:32:50.967Z,12.70
2019-02-22T18:35:20.268Z,14.97
2019-02-22T18:37:49.567Z,16.07
2019-02-22T18:40:20.650Z,21.03
2019-02-22T18:42:49.981Z,22.53
2019-02-22T18:45:19.290Z,24.63
2019-02-22T18:47:48.548Z,27.70
2019-02-22T18:50:17.811Z,27.17
2019-02-22T18:52:47.221Z,30.70
2019-02-22T18:55:16.478Z,25.87
2019-02-22T18:57:45.757Z,33.80
2019-02-22T19:00:19.740Z,34.07
2019-02-22T19:02:49.208Z,35.07
2019-02-22T19:05:18.633Z,38.37
2019-02-22T19:07:48.108Z,34.07
2019-02-22T19:10:18.639Z,37.10
2019-02-22T19:12:47.916Z,37.10
2019-02-22T19:15:17.288Z,37.10
2019-02-22T19:17:46.564Z,38.00
2019-02-22T19:20:20.662Z,35.50
2019-02-22T19:22:50.033Z,37.57
2019-02-22T19:25:19.280Z,37.10
2019-02-22T19:27:48.575Z,32.70
2019-02-22T19:30:19.270Z,35.37
2019-02-22T19:32:48.814Z,42.03
2019-02-22T19:35:18.148Z,40.83
2019-02-22T19:37:47.436Z,43.67
2019-02-22T19:40:19.713Z,38.43
2019-02-22T19:42:48.971Z,39.93
2019-02-22T19:45:18.247Z,40.80
2019-02-22T19:47:47.514Z,39.90
2019-02-22T19:50:16.744Z,39.17
2019-02-22T19:52:45.994Z,41.37
2019-02-22T19:55:19.388Z,40.10
2019-02-22T19:57:48.667Z,42.07
2019-02-22T20:00:18.871Z,37.37
2019-02-22T20:02:48.542Z,46.63
2019-02-22T20:05:17.881Z,40.57
2019-02-22T20:07:47.119Z,42.27
2019-02-22T20:10:20.664Z,41.13
2019-02-22T20:12:49.923Z,39.67
2019-02-22T20:15:19.329Z,40.00
2019-02-22T20:17:54.619Z,38.90
2019-02-22T20:20:20.353Z,44.60
2019-02-22T20:22:50.426Z,41.20
2019-02-22T20:25:19.666Z,38.53
2019-02-22T20:27:48.913Z,42.57
2019-02-22T20:30:19.222Z,42.93
2019-02-22T20:32:48.469Z,39.47
2019-02-22T20:35:27.547Z,40.60
2019-02-22T20:37:56.867Z,39.53
2019-02-22T20:40:26.204Z,34.87
2019-02-22T20:42:55.518Z,36.97
2019-02-22T20:45:24.754Z,39.57
2019-02-22T20:48:04.307Z,35.03
2019-02-22T20:50:25.030Z,37.43
2019-02-22T20:52:54.347Z,39.57
2019-02-22T20:55:23.589Z,37.77
2019-02-22T20:57:52.945Z,40.57
2019-02-22T21:00:24.160Z,35.93
2019-02-22T21:02:53.509Z,37.53
2019-02-22T21:05:22.826Z,37.50
2019-02-22T21:07:52.073Z,38.23
2019-02-22T21:10:22.574Z,40.17
2019-02-22T21:12:51.850Z,35.53
2019-02-22T21:15:21.118Z,38.23
2019-02-22T21:17:50.377Z,35.63
2019-02-22T21:20:22.930Z,37.30
2019-02-22T21:22:52.206Z,35.67
2019-02-22T21:25:21.489Z,37.47
2019-02-22T21:27:50.757Z,30.67
2019-02-22T21:30:21.087Z,34.40
2019-02-22T21:32:50.393Z,28.60
2019-02-22T21:35:19.661Z,34.37
2019-02-22T21:37:48.958Z,32.20
2019-02-22T21:40:18.237Z,32.10
2019-02-22T21:42:47.502Z,34.80
2019-02-22T21:45:17.317Z,25.60
2019-02-22T21:47:54.626Z,32.70
2019-02-22T21:50:17.787Z,35.57
2019-02-22T21:52:47.139Z,27.20
2019-02-22T21:55:16.737Z,31.03
2019-02-22T21:57:46.006Z,32.33
2019-02-22T22:00:23.605Z,31.50
2019-02-22T22:02:52.883Z,30.43
2019-02-22T22:05:22.135Z,31.00
2019-02-22T22:07:51.412Z,31.47
2019-02-22T22:10:20.683Z,29.83
2019-02-22T22:12:49.988Z,31.73
2019-02-22T22:15:19.290Z,33.77
2019-02-22T22:17:48.511Z,32.67
2019-02-22T22:20:17.759Z,36.37
2019-02-22T22:22:47.098Z,32.10
2019-02-22T22:25:16.917Z,30.87
2019-02-22T22:27:46.270Z,29.00
2019-02-22T22:30:16.204Z,33.10
2019-02-22T22:32:45.539Z,29.77
2019-02-22T22:35:16.372Z,30.93
2019-02-22T22:37:45.677Z,34.93
2019-02-22T22:40:14.910Z,39.47
2019-02-22T22:42:44.236Z,36.63
2019-02-22T22:45:14.646Z,35.13
2019-02-22T22:47:44.067Z,32.03
2019-02-22T22:50:17.264Z,39.03
2019-02-22T22:52:46.599Z,36.97
2019-02-22T22:55:15.852Z,37.97
2019-02-22T22:57:45.803Z,37.03
2019-02-22T23:00:43.918Z,43.97
2019-02-22T23:03:13.166Z,37.57
2019-02-22T23:05:42.413Z,40.80
2019-02-22T23:08:12.488Z,40.60
2019-02-22T23:10:41.925Z,40.67
2019-02-22T23:13:11.244Z,39.83
2019-02-22T23:15:40.496Z,44.83
2019-02-22T23:18:09.734Z,38.27
2019-02-22T23:20:39.120Z,40.93
2019-02-22T23:23:08.381Z,46.17
2019-02-22T23:25:37.690Z,39.70
2019-02-22T23:28:06.947Z,41.87
2019-02-22T23:30:36.338Z,45.10
2019-02-22T23:33:05.658Z,38.27
2019-02-22T23:35:34.888Z,43.47
2019-02-22T23:38:04.456Z,40.00
2019-02-22T23:40:33.759Z,47.10
2019-02-22T23:43:03.007Z,49.27
2019-02-22T23:45:32.283Z,43.97
2019-02-22T23:48:01.566Z,52.73
2019-02-22T23:50:30.818Z,43.30
2019-02-22T23:53:00.128Z,47.60
2019-02-22T23:55:29.374Z,48.83
2019-02-22T23:57:58.594Z,44.60
